createdAt,value
2023-04-08T00:02:18.614Z,4.08
2023-04-08T00:05:04.276Z,3.38
2023-04-08T00:07:50.048Z,4.11
2023-04-08T00:10:35.580Z,3.95
2023-04-08T00:13:21.136Z,3.52
2023-04-08T00:16:08.076Z,3.94
2023-04-08T00:18:53.351Z,3.39
2023-04-08T00:21:38.798Z,4.00
2023-04-08T00:24:24.338Z,3.98
2023-04-08T00:27:09.896Z,4.06
2023-04-08T00:29:55.708Z,4.07
2023-04-08T00:32:41.078Z,4.03
2023-04-08T00:35:26.746Z,3.99
2023-04-08T00:38:12.340Z,3.59
2023-04-08T00:40:58.618Z,4.03
2023-04-08T00:43:44.415Z,3.96
2023-04-08T00:46:31.867Z,3.53
2023-04-08T00:49:17.632Z,2.64
2023-04-08T00:52:03.501Z,2.73
2023-04-08T00:54:49.051Z,4.03
2023-04-08T00:57:34.711Z,2.81
2023-04-08T01:00:21.010Z,3.91
2023-04-08T01:03:18.854Z,3.64
2023-04-08T01:06:16.172Z,3.98
2023-04-08T01:09:06.056Z,2.45
2023-04-08T01:11:53.984Z,3.92
2023-04-08T01:14:44.066Z,3.68
2023-04-08T01:17:31.380Z,4.00
2023-04-08T01:20:17.638Z,3.98
2023-04-08T01:23:25.192Z,2.90
2023-04-08T01:26:13.480Z,3.05
2023-04-08T01:29:01.790Z,3.79
2023-04-08T01:31:48.152Z,3.79
2023-04-08T01:34:35.080Z,2.77
2023-04-08T01:37:22.178Z,2.41
2023-04-08T01:40:09.150Z,2.16
2023-04-08T01:42:57.634Z,2.93
2023-04-08T01:45:48.578Z,3.37
2023-04-08T01:48:35.975Z,2.24
2023-04-08T01:51:23.378Z,2.70
2023-04-08T01:54:09.415Z,3.51
2023-04-08T01:56:57.342Z,3.00
2023-04-08T01:59:44.632Z,2.12
2023-04-08T02:02:32.793Z,3.12
2023-04-08T02:05:18.679Z,3.41
2023-04-08T02:08:04.191Z,3.46
2023-04-08T02:10:49.744Z,3.55
2023-04-08T02:13:36.010Z,2.22
2023-04-08T02:16:48.219Z,3.35
2023-04-08T02:19:46.865Z,3.64
2023-04-08T02:22:41.776Z,3.70
2023-04-08T02:25:30.606Z,2.88
2023-04-08T02:28:18.728Z,3.67
2023-04-08T02:31:08.558Z,3.76
2023-04-08T02:33:56.120Z,3.40
2023-04-08T02:36:42.959Z,3.79
2023-04-08T02:39:35.450Z,3.79
2023-04-08T02:42:21.346Z,3.75
2023-04-08T02:45:07.895Z,2.38
2023-04-08T02:47:53.423Z,3.03
2023-04-08T02:50:39.990Z,2.84
2023-04-08T02:53:26.545Z,1.88
2023-04-08T02:56:12.220Z,2.62
2023-04-08T02:58:57.841Z,3.19
2023-04-08T03:01:43.670Z,2.79
2023-04-08T03:04:29.422Z,3.16
2023-04-08T03:07:15.152Z,3.10
2023-04-08T03:10:01.289Z,3.18
2023-04-08T03:12:46.937Z,3.40
2023-04-08T03:15:46.143Z,3.52
2023-04-08T03:18:32.786Z,3.56
2023-04-08T03:21:18.969Z,3.64
2023-04-08T03:24:04.855Z,3.60
2023-04-08T03:26:51.291Z,2.23
2023-04-08T03:29:36.866Z,3.54
2023-04-08T03:32:22.815Z,3.47
2023-04-08T03:35:08.971Z,3.59
2023-04-08T03:37:55.980Z,3.59
2023-04-08T03:40:41.440Z,3.48
2023-04-08T03:43:27.692Z,3.66
2023-04-08T03:46:13.417Z,2.68
2023-04-08T03:48:58.786Z,3.58
2023-04-08T03:51:44.392Z,3.70
2023-04-08T03:54:29.964Z,3.79
2023-04-08T03:57:16.279Z,3.81
2023-04-08T04:00:02.120Z,2.77
2023-04-08T04:02:58.254Z,3.87
2023-04-08T04:05:43.883Z,3.92
2023-04-08T04:08:29.334Z,2.81
2023-04-08T04:11:14.976Z,3.86
2023-04-08T04:14:00.945Z,3.92
2023-04-08T04:16:46.803Z,3.87
2023-04-08T04:19:32.467Z,3.73
2023-04-08T04:22:18.607Z,3.74
2023-04-08T04:25:04.840Z,3.64
2023-04-08T04:27:51.430Z,3.60
2023-04-08T04:30:39.081Z,3.36
2023-04-08T04:33:25.818Z,3.48
2023-04-08T04:36:11.594Z,3.48
2023-04-08T04:38:57.427Z,2.98
2023-04-08T04:41:44.450Z,3.54
2023-04-08T04:44:30.080Z,3.62
2023-04-08T04:47:16.502Z,3.50
2023-04-08T04:50:02.649Z,3.60
2023-04-08T04:52:48.678Z,3.54
2023-04-08T04:55:34.429Z,3.06
2023-04-08T04:58:20.091Z,3.57
2023-04-08T05:01:06.208Z,3.24
2023-04-08T05:03:52.272Z,3.49
2023-04-08T05:06:37.727Z,3.48
2023-04-08T05:09:25.208Z,3.46
2023-04-08T05:12:12.610Z,3.49
2023-04-08T05:14:59.797Z,3.56
2023-04-08T05:17:45.737Z,3.61
2023-04-08T05:20:31.509Z,3.69
2023-04-08T05:23:18.406Z,3.36
2023-04-08T05:26:07.765Z,3.87
2023-04-08T05:28:53.870Z,3.52
2023-04-08T05:31:39.589Z,2.96
2023-04-08T05:34:25.564Z,3.84
2023-04-08T05:37:12.110Z,4.19
2023-04-08T05:39:58.080Z,3.62
2023-04-08T05:42:44.021Z,4.34
2023-04-08T05:45:30.325Z,4.14
2023-04-08T05:48:17.028Z,4.53
2023-04-08T05:51:03.725Z,3.61
2023-04-08T05:53:48.955Z,4.71
2023-04-08T05:56:35.199Z,4.78
2023-04-08T05:59:21.183Z,4.19
2023-04-08T06:02:07.464Z,3.93
2023-04-08T06:04:54.656Z,4.95
2023-04-08T06:07:40.899Z,5.00
2023-04-08T06:10:26.254Z,5.08
2023-04-08T06:13:11.901Z,4.85
2023-04-08T06:15:57.342Z,4.47
2023-04-08T06:18:43.899Z,4.14
2023-04-08T06:21:30.477Z,5.01
2023-04-08T06:24:17.066Z,5.26
2023-04-08T06:27:03.444Z,5.30
2023-04-08T06:29:50.466Z,4.83
2023-04-08T06:32:36.586Z,5.00
2023-04-08T06:35:24.107Z,5.39
2023-04-08T06:38:11.077Z,5.30
2023-04-08T06:40:56.800Z,5.33
2023-04-08T06:43:44.108Z,5.36
2023-04-08T06:46:31.649Z,5.43
2023-04-08T06:49:18.633Z,5.23
2023-04-08T06:52:06.848Z,5.15
2023-04-08T06:54:53.070Z,5.37
2023-04-08T06:57:39.159Z,4.57
2023-04-08T07:00:24.936Z,5.52
2023-04-08T07:03:11.996Z,5.52
2023-04-08T07:05:58.650Z,5.04
2023-04-08T07:08:45.130Z,5.26
2023-04-08T07:11:31.454Z,5.59
2023-04-08T07:14:17.608Z,5.73
2023-04-08T07:17:03.039Z,5.66
2023-04-08T07:19:49.429Z,5.72
2023-04-08T07:22:35.237Z,5.52
2023-04-08T07:25:21.136Z,5.74
2023-04-08T07:28:06.958Z,5.82
2023-04-08T07:30:53.190Z,5.47
2023-04-08T07:33:38.645Z,5.90
2023-04-08T07:36:24.242Z,4.81
2023-04-08T07:39:09.888Z,5.72
2023-04-08T07:41:55.931Z,5.98
2023-04-08T07:44:41.779Z,6.14
2023-04-08T07:47:27.506Z,6.16
2023-04-08T07:50:14.087Z,5.74
2023-04-08T07:53:00.135Z,6.28
2023-04-08T07:55:45.887Z,5.84
2023-04-08T07:58:32.707Z,6.39
2023-04-08T08:01:20.158Z,6.41
2023-04-08T08:04:06.321Z,6.27
2023-04-08T08:06:52.062Z,5.11
2023-04-08T08:09:37.446Z,5.13
2023-04-08T08:12:23.068Z,5.31
2023-04-08T08:15:09.236Z,6.36
2023-04-08T08:17:55.851Z,6.40
2023-04-08T08:20:41.716Z,5.74
2023-04-08T08:23:27.341Z,6.08
2023-04-08T08:26:13.129Z,6.32
2023-04-08T08:28:59.062Z,6.35
2023-04-08T08:31:45.088Z,6.31
2023-04-08T08:34:32.326Z,5.67
2023-04-08T08:37:17.983Z,6.31
2023-04-08T08:40:04.940Z,6.24
2023-04-08T08:42:52.788Z,6.48
2023-04-08T08:45:42.596Z,6.34
2023-04-08T08:48:29.036Z,6.59
2023-04-08T08:51:16.404Z,6.61
2023-04-08T08:54:04.537Z,6.59
2023-04-08T08:56:51.746Z,6.26
2023-04-08T08:59:40.826Z,6.22
2023-04-08T09:02:33.727Z,6.71
2023-04-08T09:05:21.321Z,5.59
2023-04-08T09:08:24.001Z,6.51
2023-04-08T09:11:16.986Z,6.80
2023-04-08T09:14:04.033Z,6.74
2023-04-08T09:16:51.724Z,6.58
2023-04-08T09:19:38.300Z,6.28
2023-04-08T09:22:24.460Z,6.18
2023-04-08T09:25:27.067Z,6.99
2023-04-08T09:28:23.490Z,7.03
2023-04-08T09:31:28.062Z,7.05
2023-04-08T09:34:17.321Z,6.53
2023-04-08T09:37:03.700Z,7.04
2023-04-08T09:39:51.227Z,5.67
2023-04-08T09:42:40.888Z,7.09
2023-04-08T09:45:28.327Z,6.83
2023-04-08T09:48:19.641Z,7.12
2023-04-08T09:51:16.721Z,7.14
2023-04-08T09:54:07.015Z,7.17
2023-04-08T09:57:04.648Z,6.37
2023-04-08T09:59:57.963Z,5.98
2023-04-08T10:03:01.039Z,7.27
2023-04-08T10:05:48.664Z,7.28
2023-04-08T10:08:35.527Z,7.38
2023-04-08T10:11:21.525Z,6.65
2023-04-08T10:14:09.848Z,6.89
2023-04-08T10:17:36.309Z,7.58
2023-04-08T10:20:34.719Z,7.64
2023-04-08T10:23:54.322Z,7.70
2023-04-08T10:26:40.013Z,7.75
2023-04-08T10:29:28.409Z,7.82
2023-04-08T10:32:40.535Z,7.87
2023-04-08T10:35:34.933Z,7.88
2023-04-08T10:38:21.603Z,8.01
2023-04-08T10:41:07.286Z,7.62
2023-04-08T10:43:53.286Z,8.09
2023-04-08T10:46:38.965Z,8.25
2023-04-08T10:49:33.646Z,8.09
2023-04-08T10:52:20.268Z,8.52
2023-04-08T10:55:06.130Z,8.31
2023-04-08T10:57:53.284Z,7.79
2023-04-08T11:00:40.271Z,8.77
2023-04-08T11:03:27.949Z,8.57
2023-04-08T11:06:14.292Z,8.67
2023-04-08T11:09:04.433Z,8.06
2023-04-08T11:11:52.586Z,8.84
2023-04-08T11:14:41.298Z,9.16
2023-04-08T11:17:27.365Z,8.16
2023-04-08T11:20:14.540Z,8.41
2023-04-08T11:23:01.301Z,9.35
2023-04-08T11:25:48.171Z,8.50
2023-04-08T11:28:35.758Z,9.05
2023-04-08T11:31:24.874Z,9.54
2023-04-08T11:34:11.419Z,9.60
2023-04-08T11:36:59.516Z,8.97
2023-04-08T11:39:46.444Z,9.49
2023-04-08T11:42:33.597Z,9.75
2023-04-08T11:45:21.560Z,9.76
2023-04-08T11:48:14.781Z,9.65
2023-04-08T11:51:10.709Z,9.84
2023-04-08T11:53:57.447Z,8.83
2023-04-08T11:56:50.922Z,9.10
2023-04-08T11:59:37.140Z,9.98
2023-04-08T12:02:23.122Z,9.92
2023-04-08T12:05:09.161Z,10.10
2023-04-08T12:07:55.458Z,10.08
2023-04-08T12:10:41.683Z,10.16
2023-04-08T12:13:27.826Z,9.97
2023-04-08T12:16:14.384Z,10.26
2023-04-08T12:19:00.370Z,10.29
2023-04-08T12:21:46.037Z,10.01
2023-04-08T12:24:31.790Z,10.31
2023-04-08T12:27:17.286Z,10.32
2023-04-08T12:30:03.657Z,9.32
2023-04-08T12:32:49.855Z,9.83
2023-04-08T12:35:36.164Z,10.34
2023-04-08T12:38:21.920Z,10.37
2023-04-08T12:41:07.953Z,10.37
2023-04-08T12:43:53.439Z,9.33
2023-04-08T12:46:39.465Z,10.21
2023-04-08T12:49:26.311Z,9.99
2023-04-08T12:52:12.044Z,10.55
2023-04-08T12:54:57.738Z,10.54
2023-04-08T12:57:43.484Z,10.59
2023-04-08T13:00:29.209Z,9.36
2023-04-08T13:03:17.603Z,10.56
2023-04-08T13:06:03.372Z,10.54
2023-04-08T13:08:49.609Z,10.19
2023-04-08T13:11:36.761Z,10.47
2023-04-08T13:14:25.673Z,10.47
2023-04-08T13:17:11.544Z,10.50
2023-04-08T13:19:57.690Z,9.81
2023-04-08T13:22:43.819Z,10.48
2023-04-08T13:25:30.026Z,9.97
2023-04-08T13:28:15.769Z,10.40
2023-04-08T13:31:01.578Z,10.39
2023-04-08T13:33:47.446Z,10.36
2023-04-08T13:36:33.002Z,9.70
2023-04-08T13:39:18.621Z,10.28
2023-04-08T13:42:04.808Z,10.27
2023-04-08T13:44:50.256Z,10.19
2023-04-08T13:47:38.106Z,9.75
2023-04-08T13:50:24.390Z,10.19
2023-04-08T13:53:10.105Z,9.99
2023-04-08T13:55:56.041Z,10.33
2023-04-08T13:58:41.842Z,9.86
2023-04-08T14:01:28.074Z,10.17
2023-04-08T14:04:14.191Z,10.25
2023-04-08T14:06:59.744Z,10.18
2023-04-08T14:09:46.307Z,9.04
2023-04-08T14:12:31.924Z,10.05
2023-04-08T14:15:18.234Z,10.19
2023-04-08T14:18:04.153Z,9.18
2023-04-08T14:20:49.618Z,10.09
2023-04-08T14:23:35.378Z,10.17
2023-04-08T14:26:21.736Z,10.13
2023-04-08T14:29:08.421Z,10.07
2023-04-08T14:31:54.285Z,10.12
2023-04-08T14:34:39.845Z,9.77
2023-04-08T14:37:25.505Z,9.85
2023-04-08T14:40:11.691Z,10.05
2023-04-08T14:42:57.576Z,9.79
2023-04-08T14:45:45.041Z,9.95
2023-04-08T14:48:30.887Z,10.32
2023-04-08T14:51:16.905Z,9.99
2023-04-08T14:54:03.151Z,9.03
2023-04-08T14:56:49.195Z,10.33
2023-04-08T14:59:34.994Z,10.13
2023-04-08T15:02:20.482Z,7.53
2023-04-08T15:05:06.854Z,10.29
2023-04-08T15:07:52.569Z,10.29
2023-04-08T15:10:38.748Z,10.31
2023-04-08T15:13:24.538Z,9.98
2023-04-08T15:16:10.434Z,10.35
2023-04-08T15:18:56.629Z,10.43
2023-04-08T15:21:42.385Z,10.29
2023-04-08T15:24:28.221Z,10.43
2023-04-08T15:27:14.748Z,10.25
2023-04-08T15:30:00.449Z,10.33
2023-04-08T15:32:46.798Z,10.37
2023-04-08T15:35:33.678Z,9.55
2023-04-08T15:38:19.198Z,10.34
2023-04-08T15:41:05.058Z,10.26
2023-04-08T15:43:52.660Z,10.36
2023-04-08T15:46:38.664Z,10.38
2023-04-08T15:49:24.255Z,10.41
2023-04-08T15:52:09.887Z,10.34
2023-04-08T15:54:55.928Z,10.21
2023-04-08T15:57:41.442Z,9.84
2023-04-08T16:00:27.436Z,8.96
2023-04-08T16:03:13.391Z,10.14
2023-04-08T16:05:59.124Z,9.64
2023-04-08T16:08:46.961Z,9.81
2023-04-08T16:11:34.270Z,9.95
2023-04-08T16:14:19.955Z,9.52
2023-04-08T16:17:06.478Z,9.91
2023-04-08T16:19:52.355Z,9.73
2023-04-08T16:22:38.796Z,9.82
2023-04-08T16:25:27.836Z,9.94
2023-04-08T16:28:14.176Z,9.89
2023-04-08T16:30:59.978Z,9.19
2023-04-08T16:33:45.666Z,9.32
2023-04-08T16:36:31.457Z,9.91
2023-04-08T16:39:17.401Z,9.87
2023-04-08T16:42:02.967Z,6.70
2023-04-08T16:44:49.265Z,9.44
2023-04-08T16:47:35.462Z,9.68
2023-04-08T16:50:21.677Z,9.43
2023-04-08T16:53:07.636Z,9.31
2023-04-08T16:55:53.401Z,9.50
2023-04-08T16:58:39.242Z,9.43
2023-04-08T17:01:26.475Z,9.40
2023-04-08T17:04:13.694Z,9.26
2023-04-08T17:07:09.058Z,8.45
2023-04-08T17:09:56.941Z,8.46
2023-04-08T17:12:45.107Z,9.19
2023-04-08T17:15:31.709Z,9.03
2023-04-08T17:18:17.586Z,9.09
2023-04-08T17:21:04.124Z,9.01
2023-04-08T17:23:52.064Z,9.04
2023-04-08T17:26:41.741Z,7.80
2023-04-08T17:29:28.231Z,9.06
2023-04-08T17:32:14.267Z,8.92
2023-04-08T17:34:59.551Z,8.75
2023-04-08T17:37:45.012Z,7.75
2023-04-08T17:40:31.111Z,8.76
2023-04-08T17:43:16.608Z,8.92
2023-04-08T17:46:02.316Z,7.67
2023-04-08T17:48:47.666Z,8.60
2023-04-08T17:51:34.404Z,7.59
2023-04-08T17:54:20.845Z,8.90
2023-04-08T17:57:07.422Z,8.58
2023-04-08T17:59:53.264Z,8.21
2023-04-08T18:02:39.009Z,8.44
2023-04-08T18:05:24.794Z,8.41
2023-04-08T18:08:10.850Z,8.53
2023-04-08T18:10:56.411Z,8.65
2023-04-08T18:13:42.620Z,8.62
2023-04-08T18:16:28.432Z,8.54
2023-04-08T18:19:15.696Z,7.86
2023-04-08T18:22:01.784Z,8.05
2023-04-08T18:24:47.964Z,8.27
2023-04-08T18:27:33.932Z,7.36
2023-04-08T18:30:20.009Z,8.22
2023-04-08T18:33:06.773Z,7.65
2023-04-08T18:35:58.240Z,7.97
2023-04-08T18:38:45.672Z,8.24
2023-04-08T18:41:32.173Z,7.12
2023-04-08T18:44:17.447Z,7.42
2023-04-08T18:47:03.164Z,8.40
2023-04-08T18:49:48.787Z,8.26
2023-04-08T18:52:35.097Z,7.04
2023-04-08T18:55:21.490Z,6.73
2023-04-08T18:58:07.492Z,7.72
2023-04-08T19:00:53.326Z,7.94
2023-04-08T19:03:39.046Z,7.58
2023-04-08T19:06:24.789Z,7.56
2023-04-08T19:09:10.509Z,7.76
2023-04-08T19:11:55.999Z,7.71
2023-04-08T19:14:42.105Z,7.65
2023-04-08T19:17:27.730Z,7.58
2023-04-08T19:20:12.993Z,7.37
2023-04-08T19:22:58.518Z,7.32
2023-04-08T19:25:44.035Z,6.97
2023-04-08T19:28:29.374Z,6.23
2023-04-08T19:31:19.780Z,6.68
2023-04-08T19:34:06.142Z,7.39
2023-04-08T19:36:52.664Z,5.74
2023-04-08T19:39:38.050Z,6.93
2023-04-08T19:42:24.241Z,6.79
2023-04-08T19:45:10.908Z,7.25
2023-04-08T19:47:56.817Z,7.28
2023-04-08T19:50:42.738Z,6.79
2023-04-08T19:53:28.331Z,7.22
2023-04-08T19:56:14.897Z,5.92
2023-04-08T19:59:03.324Z,7.26
2023-04-08T20:01:49.016Z,7.01
2023-04-08T20:04:34.928Z,6.60
2023-04-08T20:07:20.569Z,7.01
2023-04-08T20:10:07.780Z,7.00
2023-04-08T20:12:54.035Z,5.85
2023-04-08T20:15:39.772Z,5.60
2023-04-08T20:18:25.538Z,6.70
2023-04-08T20:21:13.961Z,6.36
2023-04-08T20:23:59.142Z,5.02
2023-04-08T20:26:45.160Z,6.40
2023-04-08T20:29:30.655Z,6.43
2023-04-08T20:32:16.149Z,6.22
2023-04-08T20:35:01.948Z,5.82
2023-04-08T20:37:47.562Z,6.46
2023-04-08T20:40:33.324Z,6.37
2023-04-08T20:43:18.947Z,5.31
2023-04-08T20:46:04.580Z,6.30
2023-04-08T20:48:50.734Z,5.14
2023-04-08T20:51:36.739Z,6.07
2023-04-08T20:54:22.629Z,5.06
2023-04-08T20:57:08.192Z,4.98
2023-04-08T20:59:53.626Z,5.01
2023-04-08T21:02:40.376Z,6.25
2023-04-08T21:05:26.521Z,5.74
2023-04-08T21:08:12.210Z,5.87
2023-04-08T21:10:57.765Z,5.11
2023-04-08T21:13:44.576Z,4.66
2023-04-08T21:16:31.385Z,4.39
2023-04-08T21:19:16.699Z,3.77
2023-04-08T21:22:02.040Z,3.95
2023-04-08T21:24:47.472Z,3.54
2023-04-08T21:27:32.961Z,5.01
2023-04-08T21:30:19.306Z,3.78
2023-04-08T21:33:05.226Z,4.78
2023-04-08T21:35:50.508Z,3.99
2023-04-08T21:38:36.093Z,5.25
2023-04-08T21:41:21.408Z,5.24
2023-04-08T21:44:07.256Z,4.10
2023-04-08T21:46:52.830Z,5.23
2023-04-08T21:49:38.666Z,4.51
2023-04-08T21:52:24.269Z,3.70
2023-04-08T21:55:10.423Z,3.70
2023-04-08T21:57:56.297Z,4.89
2023-04-08T22:00:42.177Z,4.89
2023-04-08T22:03:27.789Z,4.29
2023-04-08T22:06:22.033Z,3.25
2023-04-08T22:09:11.560Z,4.28
2023-04-08T22:11:57.253Z,4.04
2023-04-08T22:14:42.660Z,2.79
2023-04-08T22:17:28.246Z,4.34
2023-04-08T22:20:13.774Z,2.99
2023-04-08T22:22:59.381Z,3.70
2023-04-08T22:25:44.855Z,3.65
2023-04-08T22:28:30.544Z,4.49
2023-04-08T22:31:15.806Z,3.91
2023-04-08T22:34:02.252Z,4.36
2023-04-08T22:36:47.958Z,4.20
2023-04-08T22:39:33.442Z,4.03
2023-04-08T22:42:18.693Z,3.34
2023-04-08T22:45:05.346Z,3.45
2023-04-08T22:47:51.223Z,3.79
2023-04-08T22:50:37.100Z,4.22
2023-04-08T22:53:22.360Z,4.30
2023-04-08T22:56:08.426Z,2.93
2023-04-08T22:58:53.928Z,4.37
2023-04-08T23:01:41.526Z,3.18
2023-04-08T23:04:27.130Z,4.33
2023-04-08T23:07:12.535Z,4.20
2023-04-08T23:09:57.859Z,2.85
2023-04-08T23:12:43.696Z,4.19
2023-04-08T23:15:29.167Z,2.84
2023-04-08T23:18:14.415Z,3.93
2023-04-08T23:20:59.855Z,2.69
2023-04-08T23:23:45.241Z,2.54
2023-04-08T23:26:30.692Z,3.26
2023-04-08T23:29:16.160Z,3.70
2023-04-08T23:32:01.592Z,3.08
2023-04-08T23:34:47.429Z,2.83
2023-04-08T23:37:32.821Z,4.02
2023-04-08T23:40:18.410Z,3.87
2023-04-08T23:43:04.164Z,4.19
2023-04-08T23:45:49.435Z,2.92
2023-04-08T23:48:35.014Z,3.88
2023-04-08T23:51:20.362Z,2.89
2023-04-08T23:54:05.969Z,3.56
2023-04-08T23:56:51.400Z,4.04
2023-04-08T23:59:36.646Z,4.12
